createdAt,value
2019-01-06T00:00:35.611Z,1019.86
2019-01-06T00:01:37.993Z,1019.84
2019-01-06T00:02:35.207Z,1019.84
2019-01-06T00:03:35.025Z,1019.83
2019-01-06T00:04:35.211Z,1019.85
2019-01-06T00:05:35.692Z,1019.77
2019-01-06T00:06:35.490Z,1019.83
2019-01-06T00:07:35.056Z,1019.83
2019-01-06T00:08:35.011Z,1019.83
2019-01-06T00:09:35.475Z,1019.84
2019-01-06T00:10:35.306Z,1019.86
2019-01-06T00:11:34.832Z,1019.85
2019-01-06T00:12:36.032Z,1019.91
2019-01-06T00:13:36.082Z,1019.91
2019-01-06T00:14:34.794Z,1019.92
2019-01-06T00:15:34.788Z,1019.90
2019-01-06T00:16:35.224Z,1019.88
2019-01-06T00:17:35.026Z,1019.89
2019-01-06T00:18:34.755Z,1019.90
2019-01-06T00:19:34.744Z,1019.96
2019-01-06T00:20:34.730Z,1019.92
2019-01-06T00:21:35.023Z,1019.90
2019-01-06T00:22:34.834Z,1019.88
2019-01-06T00:23:36.504Z,1019.88
2019-01-06T00:24:34.671Z,1019.90
2019-01-06T00:25:34.670Z,1019.91
2019-01-06T00:26:35.061Z,1019.88
2019-01-06T00:27:34.654Z,1019.95
2019-01-06T00:28:34.823Z,1019.97
2019-01-06T00:29:34.632Z,1019.92
2019-01-06T00:30:34.609Z,1019.96
2019-01-06T00:31:34.611Z,1019.98
2019-01-06T00:32:34.778Z,1020.00
2019-01-06T00:33:34.581Z,1020.00
2019-01-06T00:34:34.729Z,1020.00
2019-01-06T00:35:34.648Z,1019.99
2019-01-06T00:36:34.573Z,1019.96
2019-01-06T00:37:34.540Z,1019.96
2019-01-06T00:38:35.122Z,1020.01
2019-01-06T00:39:34.518Z,1020.12
2019-01-06T00:40:34.502Z,1020.08
2019-01-06T00:41:34.487Z,1020.13
2019-01-06T00:42:34.479Z,1020.11
2019-01-06T00:43:34.479Z,1020.16
2019-01-06T00:44:36.758Z,1020.14
2019-01-06T00:45:34.442Z,1020.13
2019-01-06T00:46:34.459Z,1020.15
2019-01-06T00:47:34.755Z,1020.18
2019-01-06T00:48:34.413Z,1020.17
2019-01-06T00:49:34.611Z,1020.11
2019-01-06T00:50:34.506Z,1020.13
2019-01-06T00:51:35.138Z,1020.08
2019-01-06T00:52:34.385Z,1020.07
2019-01-06T00:53:34.408Z,1020.13
2019-01-06T00:54:34.463Z,1020.11
2019-01-06T00:55:40.078Z,1020.15
2019-01-06T00:56:34.323Z,1020.19
2019-01-06T00:57:34.314Z,1020.18
2019-01-06T00:58:34.301Z,1020.21
2019-01-06T00:59:34.601Z,1020.17
2019-01-06T01:00:34.285Z,1020.27
2019-01-06T01:01:35.123Z,1020.17
2019-01-06T01:02:34.262Z,1020.20
2019-01-06T01:03:35.118Z,1020.18
2019-01-06T01:04:34.237Z,1020.11
2019-01-06T01:05:34.678Z,1020.15
2019-01-06T01:06:34.557Z,1020.14
2019-01-06T01:07:34.221Z,1020.16
2019-01-06T01:08:34.199Z,1020.15
2019-01-06T01:09:35.928Z,1020.16
2019-01-06T01:10:34.227Z,1020.11
2019-01-06T01:11:34.166Z,1020.12
2019-01-06T01:12:34.647Z,1020.11
2019-01-06T01:13:34.132Z,1020.08
2019-01-06T01:14:34.315Z,1020.16
2019-01-06T01:15:34.111Z,1020.10
2019-01-06T01:16:34.119Z,1020.18
2019-01-06T01:17:34.164Z,1020.14
2019-01-06T01:18:34.271Z,1020.16
2019-01-06T01:19:34.075Z,1020.22
2019-01-06T01:20:34.065Z,1020.22
2019-01-06T01:21:34.049Z,1020.16
2019-01-06T01:22:34.052Z,1020.22
2019-01-06T01:23:34.165Z,1020.24
2019-01-06T01:24:34.233Z,1020.19
2019-01-06T01:25:34.015Z,1020.17
2019-01-06T01:26:34.004Z,1020.23
2019-01-06T01:27:33.986Z,1020.19
2019-01-06T01:28:33.985Z,1020.27
2019-01-06T01:29:33.963Z,1020.23
2019-01-06T01:30:34.130Z,1020.26
2019-01-06T01:31:34.109Z,1020.23
2019-01-06T01:32:33.926Z,1020.31
2019-01-06T01:33:33.915Z,1020.29
2019-01-06T01:34:34.007Z,1020.35
2019-01-06T01:35:34.089Z,1020.26
2019-01-06T01:36:33.886Z,1020.32
2019-01-06T01:37:33.881Z,1020.36
2019-01-06T01:38:34.202Z,1020.40
2019-01-06T01:39:33.856Z,1020.36
2019-01-06T01:40:33.968Z,1020.37
2019-01-06T01:41:34.204Z,1020.38
2019-01-06T01:42:34.366Z,1020.38
2019-01-06T01:43:33.807Z,1020.40
2019-01-06T01:44:33.811Z,1020.41
2019-01-06T01:45:33.814Z,1020.44
2019-01-06T01:46:34.316Z,1020.45
2019-01-06T01:47:33.770Z,1020.42
2019-01-06T01:48:34.211Z,1020.47
2019-01-06T01:49:33.743Z,1020.48
2019-01-06T01:50:33.741Z,1020.44
2019-01-06T01:51:33.736Z,1020.47
2019-01-06T01:52:33.721Z,1020.41
2019-01-06T01:53:34.009Z,1020.48
2019-01-06T01:54:33.694Z,1020.46
2019-01-06T01:55:35.697Z,1020.46
2019-01-06T01:56:33.688Z,1020.51
2019-01-06T01:57:33.789Z,1020.56
2019-01-06T01:58:33.678Z,1020.53
2019-01-06T01:59:34.263Z,1020.53
2019-01-06T02:00:33.734Z,1020.57
2019-01-06T02:01:33.638Z,1020.58
2019-01-06T02:02:33.624Z,1020.55
2019-01-06T02:03:33.669Z,1020.61
2019-01-06T02:04:33.752Z,1020.60
2019-01-06T02:05:33.569Z,1020.59
2019-01-06T02:06:33.556Z,1020.61
2019-01-06T02:07:33.560Z,1020.66
2019-01-06T02:08:33.650Z,1020.64
2019-01-06T02:09:33.526Z,1020.63
2019-01-06T02:10:33.703Z,1020.67
2019-01-06T02:11:33.503Z,1020.68
2019-01-06T02:12:33.748Z,1020.69
2019-01-06T02:13:33.499Z,1020.73
2019-01-06T02:14:33.523Z,1020.74
2019-01-06T02:15:33.595Z,1020.74
2019-01-06T02:16:34.815Z,1020.73
2019-01-06T02:17:33.441Z,1020.72
2019-01-06T02:18:33.452Z,1020.70
2019-01-06T02:19:33.418Z,1020.76
2019-01-06T02:20:33.406Z,1020.78
2019-01-06T02:21:33.404Z,1020.82
2019-01-06T02:22:33.529Z,1020.81
2019-01-06T02:23:33.417Z,1020.79
2019-01-06T02:24:33.374Z,1020.77
2019-01-06T02:25:33.357Z,1020.79
2019-01-06T02:26:33.358Z,1020.82
2019-01-06T02:27:33.363Z,1020.79
2019-01-06T02:28:33.639Z,1020.80
2019-01-06T02:29:33.378Z,1020.80
2019-01-06T02:30:33.318Z,1020.77
2019-01-06T02:31:33.417Z,1020.75
2019-01-06T02:32:33.971Z,1020.77
2019-01-06T02:33:33.268Z,1020.79
2019-01-06T02:34:33.702Z,1020.76
2019-01-06T02:35:33.481Z,1020.74
2019-01-06T02:36:34.490Z,1020.74
2019-01-06T02:37:34.330Z,1020.73
2019-01-06T02:38:33.219Z,1020.77
2019-01-06T02:39:33.210Z,1020.71
2019-01-06T02:40:38.046Z,1020.76
2019-01-06T02:41:33.184Z,1020.78
2019-01-06T02:42:33.237Z,1020.79
2019-01-06T02:43:33.188Z,1020.78
2019-01-06T02:44:33.904Z,1020.77
2019-01-06T02:45:33.141Z,1020.82
2019-01-06T02:46:33.816Z,1020.86
2019-01-06T02:47:33.128Z,1020.82
2019-01-06T02:48:33.110Z,1020.82
2019-01-06T02:49:33.106Z,1020.84
2019-01-06T02:50:33.283Z,1020.88
2019-01-06T02:51:33.074Z,1020.83
2019-01-06T02:52:33.456Z,1020.90
2019-01-06T02:53:33.056Z,1020.92
2019-01-06T02:54:33.099Z,1020.87
2019-01-06T02:55:33.028Z,1020.88
2019-01-06T02:56:33.022Z,1020.83
2019-01-06T02:57:33.014Z,1020.91
2019-01-06T02:58:33.259Z,1020.88
2019-01-06T02:59:33.013Z,1020.95
2019-01-06T03:00:34.788Z,1020.95
2019-01-06T03:01:33.183Z,1020.92
2019-01-06T03:02:33.037Z,1020.95
2019-01-06T03:03:33.591Z,1020.96
2019-01-06T03:04:33.061Z,1020.94
2019-01-06T03:05:33.291Z,1020.98
2019-01-06T03:06:32.994Z,1020.98
2019-01-06T03:07:33.191Z,1020.97
2019-01-06T03:08:33.022Z,1021.00
2019-01-06T03:09:33.678Z,1021.01
2019-01-06T03:10:33.046Z,1021.02
2019-01-06T03:11:32.893Z,1021.03
2019-01-06T03:12:32.861Z,1021.04
2019-01-06T03:13:32.849Z,1021.03
2019-01-06T03:14:32.864Z,1021.03
2019-01-06T03:15:33.481Z,1021.03
2019-01-06T03:16:32.815Z,1021.08
2019-01-06T03:17:32.837Z,1021.02
2019-01-06T03:18:32.820Z,1021.03
2019-01-06T03:19:32.777Z,1021.05
2019-01-06T03:20:33.162Z,1021.02
2019-01-06T03:21:33.280Z,1021.02
2019-01-06T03:22:32.792Z,1021.02
2019-01-06T03:23:32.739Z,1021.07
2019-01-06T03:24:32.727Z,1021.03
2019-01-06T03:25:32.723Z,1021.04
2019-01-06T03:26:32.701Z,1021.03
2019-01-06T03:27:36.183Z,1021.03
2019-01-06T03:28:32.733Z,1021.01
2019-01-06T03:29:32.678Z,1021.03
2019-01-06T03:30:32.703Z,1021.05
2019-01-06T03:31:32.655Z,1021.00
2019-01-06T03:32:32.820Z,1021.03
2019-01-06T03:33:32.620Z,1021.05
2019-01-06T03:34:32.623Z,1021.07
2019-01-06T03:35:32.684Z,1021.03
2019-01-06T03:36:32.600Z,1021.03
2019-01-06T03:37:32.728Z,1021.02
2019-01-06T03:38:36.663Z,1021.02
2019-01-06T03:39:32.613Z,1021.03
2019-01-06T03:40:32.556Z,1020.99
2019-01-06T03:41:32.535Z,1021.01
2019-01-06T03:42:32.530Z,1021.02
2019-01-06T03:43:32.528Z,1021.09
2019-01-06T03:44:32.710Z,1021.02
2019-01-06T03:45:32.492Z,1021.02
2019-01-06T03:46:32.499Z,1021.04
2019-01-06T03:47:32.480Z,1021.05
2019-01-06T03:48:34.338Z,1021.06
2019-01-06T03:49:32.458Z,1021.11
2019-01-06T03:50:32.820Z,1021.04
2019-01-06T03:51:32.429Z,1021.05
2019-01-06T03:52:32.546Z,1021.05
2019-01-06T03:53:32.425Z,1021.01
2019-01-06T03:54:32.397Z,1021.05
2019-01-06T03:55:32.708Z,1021.06
2019-01-06T03:56:32.399Z,1021.09
2019-01-06T03:57:32.368Z,1021.07
2019-01-06T03:58:32.369Z,1021.12
2019-01-06T03:59:32.342Z,1021.09
2019-01-06T04:00:32.352Z,1021.13
2019-01-06T04:01:32.699Z,1021.16
2019-01-06T04:02:32.319Z,1021.12
2019-01-06T04:03:32.315Z,1021.17
2019-01-06T04:04:32.310Z,1021.15
2019-01-06T04:05:32.298Z,1021.12
2019-01-06T04:06:34.251Z,1021.12
2019-01-06T04:07:33.127Z,1021.15
2019-01-06T04:08:32.300Z,1021.11
2019-01-06T04:09:32.736Z,1021.08
2019-01-06T04:10:32.231Z,1021.16
2019-01-06T04:11:32.239Z,1021.13
2019-01-06T04:12:32.326Z,1021.14
2019-01-06T04:13:32.196Z,1021.16
2019-01-06T04:14:33.537Z,1021.13
2019-01-06T04:15:32.178Z,1021.17
2019-01-06T04:16:32.181Z,1021.21
2019-01-06T04:17:32.333Z,1021.21
2019-01-06T04:18:32.275Z,1021.20
2019-01-06T04:19:33.180Z,1021.19
2019-01-06T04:20:32.134Z,1021.21
2019-01-06T04:21:32.110Z,1021.22
2019-01-06T04:22:34.445Z,1021.24
2019-01-06T04:23:32.271Z,1021.29
2019-01-06T04:24:32.658Z,1021.30
2019-01-06T04:25:32.062Z,1021.30
2019-01-06T04:26:32.180Z,1021.25
2019-01-06T04:27:32.048Z,1021.20
2019-01-06T04:28:32.223Z,1021.18
2019-01-06T04:29:32.035Z,1021.23
2019-01-06T04:30:35.278Z,1021.22
2019-01-06T04:31:32.002Z,1021.21
2019-01-06T04:32:31.999Z,1021.19
2019-01-06T04:33:32.009Z,1021.22
2019-01-06T04:34:31.990Z,1021.19
2019-01-06T04:35:32.194Z,1021.14
2019-01-06T04:36:31.948Z,1021.12
2019-01-06T04:37:31.938Z,1021.09
2019-01-06T04:38:31.931Z,1021.13
2019-01-06T04:39:32.025Z,1021.15
2019-01-06T04:40:31.913Z,1021.24
2019-01-06T04:41:32.350Z,1021.20
2019-01-06T04:42:31.889Z,1021.18
2019-01-06T04:43:32.015Z,1021.24
2019-01-06T04:44:31.866Z,1021.17
2019-01-06T04:45:31.906Z,1021.14
2019-01-06T04:46:31.854Z,1021.15
2019-01-06T04:47:32.231Z,1021.19
2019-01-06T04:48:31.819Z,1021.19
2019-01-06T04:49:31.825Z,1021.21
2019-01-06T04:50:31.807Z,1021.24
2019-01-06T04:51:32.384Z,1021.25
2019-01-06T04:52:31.802Z,1021.25
2019-01-06T04:53:32.102Z,1021.25
2019-01-06T04:54:31.763Z,1021.19
2019-01-06T04:55:31.761Z,1021.23
2019-01-06T04:56:31.745Z,1021.26
2019-01-06T04:57:31.731Z,1021.35
2019-01-06T04:58:31.892Z,1021.37
2019-01-06T04:59:31.715Z,1021.30
2019-01-06T05:00:31.859Z,1021.33
2019-01-06T05:01:31.836Z,1021.30
2019-01-06T05:02:31.947Z,1021.35
2019-01-06T05:03:32.208Z,1021.31
2019-01-06T05:04:32.753Z,1021.35
2019-01-06T05:05:31.668Z,1021.36
2019-01-06T05:06:31.635Z,1021.27
2019-01-06T05:07:31.616Z,1021.31
2019-01-06T05:08:31.617Z,1021.34
2019-01-06T05:09:31.983Z,1021.34
2019-01-06T05:10:31.826Z,1021.27
2019-01-06T05:11:31.572Z,1021.32
2019-01-06T05:12:31.567Z,1021.31
2019-01-06T05:13:31.562Z,1021.34
2019-01-06T05:14:31.549Z,1021.33
2019-01-06T05:15:31.864Z,1021.37
2019-01-06T05:16:31.735Z,1021.34
2019-01-06T05:17:31.515Z,1021.34
2019-01-06T05:18:31.500Z,1021.33
2019-01-06T05:19:31.552Z,1021.34
2019-01-06T05:20:33.322Z,1021.37
2019-01-06T05:21:31.648Z,1021.34
2019-01-06T05:22:31.473Z,1021.39
2019-01-06T05:23:31.450Z,1021.37
2019-01-06T05:24:31.434Z,1021.35
2019-01-06T05:25:31.426Z,1021.36
2019-01-06T05:26:31.493Z,1021.34
2019-01-06T05:27:32.423Z,1021.37
2019-01-06T05:28:31.405Z,1021.37
2019-01-06T05:29:31.377Z,1021.37
2019-01-06T05:30:31.482Z,1021.36
2019-01-06T05:31:31.364Z,1021.35
2019-01-06T05:32:31.492Z,1021.38
2019-01-06T05:33:31.613Z,1021.42
2019-01-06T05:34:31.344Z,1021.43
2019-01-06T05:35:31.316Z,1021.38
2019-01-06T05:36:31.305Z,1021.39
2019-01-06T05:37:31.307Z,1021.39
2019-01-06T05:38:31.739Z,1021.42
2019-01-06T05:39:31.291Z,1021.47
2019-01-06T05:40:31.272Z,1021.46
2019-01-06T05:41:32.035Z,1021.50
2019-01-06T05:42:31.251Z,1021.52
2019-01-06T05:43:31.231Z,1021.59
2019-01-06T05:44:31.363Z,1021.59
2019-01-06T05:45:31.298Z,1021.54
2019-01-06T05:46:31.218Z,1021.57
2019-01-06T05:47:31.354Z,1021.59
2019-01-06T05:48:31.177Z,1021.60
2019-01-06T05:49:31.298Z,1021.64
2019-01-06T05:50:31.320Z,1021.66
2019-01-06T05:51:31.506Z,1021.67
2019-01-06T05:52:31.135Z,1021.63
2019-01-06T05:53:31.125Z,1021.69
2019-01-06T05:54:31.127Z,1021.72
2019-01-06T05:55:31.105Z,1021.69
2019-01-06T05:56:31.248Z,1021.74
2019-01-06T05:57:31.084Z,1021.77
2019-01-06T05:58:31.068Z,1021.76
2019-01-06T05:59:31.069Z,1021.78
2019-01-06T06:00:31.497Z,1021.82
2019-01-06T06:01:31.082Z,1021.80
2019-01-06T06:02:31.453Z,1021.79
2019-01-06T06:03:31.836Z,1021.87
2019-01-06T06:04:31.091Z,1021.90
2019-01-06T06:05:31.011Z,1021.90
2019-01-06T06:06:31.405Z,1021.93
2019-01-06T06:07:31.272Z,1021.95
2019-01-06T06:08:31.284Z,1021.86
2019-01-06T06:09:31.097Z,1021.87
2019-01-06T06:10:31.302Z,1021.89
2019-01-06T06:11:31.237Z,1021.88
2019-01-06T06:12:31.710Z,1021.88
2019-01-06T06:13:31.545Z,1021.91
2019-01-06T06:14:31.108Z,1021.98
2019-01-06T06:15:31.140Z,1022.02
2019-01-06T06:16:30.882Z,1022.01
2019-01-06T06:17:30.871Z,1021.97
2019-01-06T06:18:30.853Z,1022.03
2019-01-06T06:19:31.570Z,1022.04
2019-01-06T06:20:30.835Z,1022.04
2019-01-06T06:21:30.890Z,1022.07
2019-01-06T06:22:30.828Z,1022.08
2019-01-06T06:23:30.960Z,1022.10
2019-01-06T06:24:30.933Z,1022.15
2019-01-06T06:25:31.728Z,1022.13
2019-01-06T06:26:30.773Z,1022.12
2019-01-06T06:27:30.762Z,1022.17
2019-01-06T06:28:30.757Z,1022.14
2019-01-06T06:29:30.741Z,1022.15
2019-01-06T06:30:32.600Z,1022.11
2019-01-06T06:31:30.921Z,1022.12
2019-01-06T06:32:30.719Z,1022.14
2019-01-06T06:33:30.696Z,1022.15
2019-01-06T06:34:30.692Z,1022.21
2019-01-06T06:35:30.675Z,1022.25
2019-01-06T06:36:30.818Z,1022.27
2019-01-06T06:37:30.668Z,1022.25
2019-01-06T06:38:30.739Z,1022.28
2019-01-06T06:39:30.638Z,1022.27
2019-01-06T06:40:30.807Z,1022.25
2019-01-06T06:41:30.612Z,1022.26
2019-01-06T06:42:31.418Z,1022.29
2019-01-06T06:43:30.784Z,1022.27
2019-01-06T06:44:30.578Z,1022.31
2019-01-06T06:45:30.569Z,1022.32
2019-01-06T06:46:30.558Z,1022.32
2019-01-06T06:47:30.546Z,1022.35
2019-01-06T06:48:30.736Z,1022.32
2019-01-06T06:49:30.529Z,1022.32
2019-01-06T06:50:30.521Z,1022.33
2019-01-06T06:51:30.500Z,1022.37
2019-01-06T06:52:32.488Z,1022.34
2019-01-06T06:53:30.484Z,1022.35
2019-01-06T06:54:30.652Z,1022.34
2019-01-06T06:55:30.525Z,1022.31
2019-01-06T06:56:30.460Z,1022.30
2019-01-06T06:57:30.441Z,1022.35
2019-01-06T06:58:30.436Z,1022.34
2019-01-06T06:59:30.413Z,1022.35
2019-01-06T07:00:30.533Z,1022.38
2019-01-06T07:01:30.395Z,1022.39
2019-01-06T07:02:30.388Z,1022.42
2019-01-06T07:03:30.376Z,1022.39
2019-01-06T07:04:30.365Z,1022.40
2019-01-06T07:05:30.746Z,1022.41
2019-01-06T07:06:30.610Z,1022.40
2019-01-06T07:07:30.347Z,1022.36
2019-01-06T07:08:30.345Z,1022.38
2019-01-06T07:09:30.308Z,1022.40
2019-01-06T07:10:30.325Z,1022.39
2019-01-06T07:11:30.537Z,1022.38
2019-01-06T07:12:30.387Z,1022.42
2019-01-06T07:13:32.157Z,1022.46
2019-01-06T07:14:30.277Z,1022.47
2019-01-06T07:15:30.247Z,1022.53
2019-01-06T07:16:30.234Z,1022.59
2019-01-06T07:17:30.363Z,1022.53
2019-01-06T07:18:30.215Z,1022.52
2019-01-06T07:19:30.216Z,1022.52
2019-01-06T07:20:30.199Z,1022.55
2019-01-06T07:21:30.190Z,1022.59
2019-01-06T07:22:30.177Z,1022.64
2019-01-06T07:23:30.350Z,1022.65
2019-01-06T07:24:30.167Z,1022.64
2019-01-06T07:25:30.153Z,1022.65
2019-01-06T07:26:30.128Z,1022.70
2019-01-06T07:27:30.146Z,1022.69
2019-01-06T07:28:30.130Z,1022.66
2019-01-06T07:29:31.990Z,1022.68
2019-01-06T07:30:30.111Z,1022.72
2019-01-06T07:31:30.228Z,1022.68
2019-01-06T07:32:30.061Z,1022.72
2019-01-06T07:33:30.069Z,1022.73
2019-01-06T07:34:31.364Z,1022.72
2019-01-06T07:35:30.084Z,1022.76
2019-01-06T07:36:30.038Z,1022.74
2019-01-06T07:37:30.014Z,1022.80
2019-01-06T07:38:30.864Z,1022.81
2019-01-06T07:39:29.988Z,1022.80
2019-01-06T07:40:29.979Z,1022.83
2019-01-06T07:41:30.172Z,1022.81
2019-01-06T07:42:29.966Z,1022.82
2019-01-06T07:43:29.957Z,1022.84
2019-01-06T07:44:29.989Z,1022.81
2019-01-06T07:45:29.928Z,1022.84
2019-01-06T07:46:30.058Z,1022.83
2019-01-06T07:47:31.271Z,1022.85
2019-01-06T07:48:29.932Z,1022.86
2019-01-06T07:49:29.886Z,1022.86
2019-01-06T07:50:29.869Z,1022.80
2019-01-06T07:51:29.862Z,1022.81
2019-01-06T07:52:29.857Z,1022.85
2019-01-06T07:53:30.206Z,1022.81
2019-01-06T07:54:29.839Z,1022.83
2019-01-06T07:55:31.529Z,1022.82
2019-01-06T07:56:29.898Z,1022.82
2019-01-06T07:57:29.808Z,1022.82
2019-01-06T07:58:29.916Z,1022.87
2019-01-06T07:59:30.697Z,1022.88
2019-01-06T08:00:29.780Z,1022.90
2019-01-06T08:01:31.001Z,1022.93
2019-01-06T08:02:31.188Z,1022.92
2019-01-06T08:03:36.829Z,1022.90
2019-01-06T08:04:29.874Z,1022.95
2019-01-06T08:05:29.756Z,1022.92
2019-01-06T08:06:29.713Z,1022.89
2019-01-06T08:07:30.617Z,1022.92
2019-01-06T08:08:29.681Z,1022.95
2019-01-06T08:09:29.859Z,1022.92
2019-01-06T08:10:29.658Z,1022.92
2019-01-06T08:11:29.749Z,1022.92
2019-01-06T08:12:29.642Z,1022.92
2019-01-06T08:13:29.624Z,1022.92
2019-01-06T08:14:29.617Z,1022.91
2019-01-06T08:15:39.347Z,1022.97
2019-01-06T08:16:29.613Z,1022.95
2019-01-06T08:17:29.589Z,1022.96
2019-01-06T08:18:29.637Z,1022.95
2019-01-06T08:19:29.560Z,1022.94
2019-01-06T08:20:29.853Z,1022.94
2019-01-06T08:21:29.548Z,1022.94
2019-01-06T08:22:29.573Z,1022.93
2019-01-06T08:23:29.560Z,1022.96
2019-01-06T08:24:31.825Z,1022.98
2019-01-06T08:25:40.539Z,1023.00
2019-01-06T08:26:42.695Z,1022.99
2019-01-06T08:27:29.496Z,1022.99
2019-01-06T08:28:29.468Z,1022.98
2019-01-06T08:29:29.641Z,1023.04
2019-01-06T08:30:29.727Z,1023.07
2019-01-06T08:31:30.586Z,1023.09
2019-01-06T08:32:29.804Z,1023.07
2019-01-06T08:33:30.868Z,1023.14
2019-01-06T08:34:29.406Z,1023.15
2019-01-06T08:35:29.443Z,1023.18
2019-01-06T08:36:31.254Z,1023.15
2019-01-06T08:37:29.817Z,1023.14
2019-01-06T08:38:29.358Z,1023.15
2019-01-06T08:39:29.559Z,1023.13
2019-01-06T08:40:29.367Z,1023.15
2019-01-06T08:41:29.328Z,1023.18
2019-01-06T08:42:29.663Z,1023.17
2019-01-06T08:43:29.815Z,1023.19
2019-01-06T08:44:31.725Z,1023.16
2019-01-06T08:45:31.891Z,1023.21
2019-01-06T08:46:29.591Z,1023.18
2019-01-06T08:47:29.256Z,1023.21
2019-01-06T08:48:29.311Z,1023.21
2019-01-06T08:49:29.792Z,1023.21
2019-01-06T08:50:29.291Z,1023.20
2019-01-06T08:51:29.221Z,1023.21
2019-01-06T08:52:29.315Z,1023.22
2019-01-06T08:53:29.185Z,1023.18
2019-01-06T08:54:29.640Z,1023.19
2019-01-06T08:55:31.937Z,1023.23
2019-01-06T08:56:29.158Z,1023.21
2019-01-06T08:57:29.151Z,1023.23
2019-01-06T08:58:31.612Z,1023.21
2019-01-06T08:59:29.150Z,1023.23
2019-01-06T09:00:29.331Z,1023.24
2019-01-06T09:01:29.124Z,1023.27
2019-01-06T09:02:29.489Z,1023.26
2019-01-06T09:03:29.082Z,1023.24
2019-01-06T09:04:29.107Z,1023.27
2019-01-06T09:05:29.489Z,1023.24
2019-01-06T09:06:32.098Z,1023.23
2019-01-06T09:07:29.855Z,1023.26
2019-01-06T09:08:29.038Z,1023.27
2019-01-06T09:09:29.286Z,1023.31
2019-01-06T09:10:29.069Z,1023.33
2019-01-06T09:11:29.662Z,1023.36
2019-01-06T09:12:29.059Z,1023.35
2019-01-06T09:13:30.597Z,1023.36
2019-01-06T09:14:29.275Z,1023.34
2019-01-06T09:15:29.061Z,1023.37
2019-01-06T09:16:29.707Z,1023.37
2019-01-06T09:17:29.632Z,1023.36
2019-01-06T09:18:29.424Z,1023.34
2019-01-06T09:19:29.503Z,1023.40
2019-01-06T09:20:29.054Z,1023.39
2019-01-06T09:21:29.440Z,1023.36
2019-01-06T09:22:29.362Z,1023.35
2019-01-06T09:23:29.319Z,1023.33
2019-01-06T09:24:29.022Z,1023.33
2019-01-06T09:25:29.542Z,1023.29
2019-01-06T09:26:28.827Z,1023.27
2019-01-06T09:27:29.665Z,1023.27
2019-01-06T09:28:29.569Z,1023.26
2019-01-06T09:29:29.048Z,1023.23
2019-01-06T09:30:28.798Z,1023.22
2019-01-06T09:31:28.789Z,1023.19
2019-01-06T09:32:28.904Z,1023.21
2019-01-06T09:33:29.582Z,1023.19
2019-01-06T09:34:28.916Z,1023.20
2019-01-06T09:35:28.801Z,1023.17
2019-01-06T09:36:28.713Z,1023.10
2019-01-06T09:37:28.791Z,1023.16
2019-01-06T09:38:28.783Z,1023.20
2019-01-06T09:39:29.055Z,1023.23
2019-01-06T09:40:29.043Z,1023.24
2019-01-06T09:41:28.738Z,1023.24
2019-01-06T09:42:29.580Z,1023.22
2019-01-06T09:43:28.842Z,1023.26
2019-01-06T09:44:28.804Z,1023.28
2019-01-06T09:45:30.984Z,1023.27
2019-01-06T09:46:28.845Z,1023.27
2019-01-06T09:47:28.608Z,1023.25
2019-01-06T09:48:30.971Z,1023.26
2019-01-06T09:49:28.626Z,1023.29
2019-01-06T09:50:30.534Z,1023.30
2019-01-06T09:51:28.646Z,1023.28
2019-01-06T09:52:28.769Z,1023.33
2019-01-06T09:53:29.228Z,1023.36
2019-01-06T09:54:29.871Z,1023.36
2019-01-06T09:55:29.487Z,1023.33
2019-01-06T09:56:33.675Z,1023.32
2019-01-06T09:57:28.654Z,1023.31
2019-01-06T09:58:28.849Z,1023.27
2019-01-06T09:59:28.709Z,1023.26
2019-01-06T10:00:28.835Z,1023.24
2019-01-06T10:01:29.001Z,1023.23
2019-01-06T10:02:30.445Z,1023.24
2019-01-06T10:03:28.764Z,1023.22
2019-01-06T10:04:35.007Z,1023.15
2019-01-06T10:05:29.437Z,1023.20
2019-01-06T10:06:28.793Z,1023.18
2019-01-06T10:07:28.810Z,1023.19
2019-01-06T10:08:29.599Z,1023.19
2019-01-06T10:09:28.708Z,1023.21
2019-01-06T10:10:28.556Z,1023.22
2019-01-06T10:11:28.730Z,1023.22
2019-01-06T10:12:28.573Z,1023.23
2019-01-06T10:13:28.741Z,1023.21
2019-01-06T10:14:28.850Z,1023.25
2019-01-06T10:15:28.763Z,1023.28
2019-01-06T10:16:28.577Z,1023.26
2019-01-06T10:17:32.284Z,1023.23
2019-01-06T10:18:34.378Z,1023.27
2019-01-06T10:19:30.729Z,1023.27
2019-01-06T10:20:29.618Z,1023.24
2019-01-06T10:21:41.854Z,1023.28
2019-01-06T10:22:29.611Z,1023.31
2019-01-06T10:23:28.808Z,1023.31
2019-01-06T10:24:28.780Z,1023.27
2019-01-06T10:25:29.709Z,1023.29
2019-01-06T10:26:29.123Z,1023.26
2019-01-06T10:27:28.627Z,1023.33
2019-01-06T10:28:28.765Z,1023.30
2019-01-06T10:29:28.578Z,1023.31
2019-01-06T10:30:28.759Z,1023.28
2019-01-06T10:31:30.884Z,1023.22
2019-01-06T10:32:28.714Z,1023.22
2019-01-06T10:33:28.639Z,1023.18
2019-01-06T10:34:28.728Z,1023.20
2019-01-06T10:35:28.587Z,1023.12
2019-01-06T10:36:28.805Z,1023.17
2019-01-06T10:37:30.016Z,1023.24
2019-01-06T10:38:29.703Z,1023.14
2019-01-06T10:39:28.611Z,1023.17
2019-01-06T10:40:28.727Z,1023.17
2019-01-06T10:41:28.647Z,1023.19
2019-01-06T10:42:29.490Z,1023.24
2019-01-06T10:43:28.711Z,1023.20
2019-01-06T10:44:28.745Z,1023.25
2019-01-06T10:45:28.719Z,1023.18
2019-01-06T10:46:28.721Z,1023.20
2019-01-06T10:47:28.848Z,1023.18
2019-01-06T10:48:31.889Z,1023.16
2019-01-06T10:49:28.948Z,1023.21
2019-01-06T10:50:28.599Z,1023.13
2019-01-06T10:51:30.135Z,1023.13
2019-01-06T10:52:28.651Z,1023.09
2019-01-06T10:53:28.738Z,1023.12
2019-01-06T10:54:29.829Z,1023.11
2019-01-06T10:55:28.943Z,1023.11
2019-01-06T10:56:28.572Z,1023.07
2019-01-06T10:57:28.824Z,1023.09
2019-01-06T10:58:28.571Z,1023.14
2019-01-06T10:59:30.791Z,1023.11
2019-01-06T11:00:28.702Z,1023.16
2019-01-06T11:01:28.745Z,1023.14
2019-01-06T11:02:29.501Z,1023.16
2019-01-06T11:03:28.733Z,1023.17
2019-01-06T11:04:28.655Z,1023.16
2019-01-06T11:05:29.486Z,1023.17
2019-01-06T11:06:28.719Z,1023.15
2019-01-06T11:07:28.607Z,1023.17
2019-01-06T11:08:28.631Z,1023.14
2019-01-06T11:09:28.115Z,1023.16
2019-01-06T11:10:30.222Z,1023.17
2019-01-06T11:11:30.120Z,1023.13
2019-01-06T11:12:27.675Z,1023.12
2019-01-06T11:13:27.663Z,1023.11
2019-01-06T11:14:28.148Z,1023.19
2019-01-06T11:15:29.596Z,1023.14
2019-01-06T11:16:27.622Z,1023.14
2019-01-06T11:17:29.213Z,1023.16
2019-01-06T11:18:27.606Z,1023.15
2019-01-06T11:19:28.569Z,1023.19
2019-01-06T11:20:27.619Z,1023.13
2019-01-06T11:21:30.342Z,1023.18
2019-01-06T11:22:32.566Z,1023.14
2019-01-06T11:23:27.588Z,1023.15
2019-01-06T11:24:27.643Z,1023.19
2019-01-06T11:25:29.599Z,1023.17
2019-01-06T11:26:27.525Z,1023.14
2019-01-06T11:27:27.508Z,1023.16
2019-01-06T11:28:27.690Z,1023.16
2019-01-06T11:29:27.501Z,1023.16
2019-01-06T11:30:27.465Z,1023.14
2019-01-06T11:31:27.483Z,1023.16
2019-01-06T11:32:27.449Z,1023.13
2019-01-06T11:33:27.436Z,1023.13
2019-01-06T11:34:29.159Z,1023.09
2019-01-06T11:35:27.425Z,1023.11
2019-01-06T11:36:27.583Z,1023.09
2019-01-06T11:37:27.393Z,1023.10
2019-01-06T11:38:29.364Z,1023.06
2019-01-06T11:39:27.382Z,1023.08
2019-01-06T11:40:27.380Z,1023.03
2019-01-06T11:41:27.343Z,1023.00
2019-01-06T11:42:27.393Z,1023.03
2019-01-06T11:43:27.331Z,1023.00
2019-01-06T11:44:27.450Z,1022.96
2019-01-06T11:45:27.304Z,1023.03
2019-01-06T11:46:27.304Z,1023.02
2019-01-06T11:47:27.377Z,1022.99
2019-01-06T11:48:27.280Z,1023.05
2019-01-06T11:49:30.599Z,1023.01
2019-01-06T11:50:27.393Z,1022.97
2019-01-06T11:51:27.413Z,1022.98
2019-01-06T11:52:27.250Z,1022.99
2019-01-06T11:53:27.450Z,1022.99
2019-01-06T11:54:27.217Z,1022.97
2019-01-06T11:55:27.304Z,1023.01
2019-01-06T11:56:42.098Z,1023.01
2019-01-06T11:57:27.507Z,1023.04
2019-01-06T11:58:27.409Z,1023.08
2019-01-06T11:59:27.156Z,1023.07
2019-01-06T12:00:27.138Z,1023.03
2019-01-06T12:01:29.534Z,1023.09
2019-01-06T12:02:27.394Z,1023.01
2019-01-06T12:03:27.118Z,1023.04
2019-01-06T12:04:27.111Z,1023.00
2019-01-06T12:05:27.120Z,1023.03